createdAt,value
2017-10-09T00:01:42.231Z,9.00
2017-10-09T00:04:09.827Z,9.00
2017-10-09T00:06:37.410Z,8.90
2017-10-09T00:09:05.115Z,8.90
2017-10-09T00:11:32.692Z,8.90
2017-10-09T00:14:00.274Z,8.90
2017-10-09T00:16:27.850Z,8.80
2017-10-09T00:18:55.431Z,8.80
2017-10-09T00:21:23.035Z,8.80
2017-10-09T00:23:50.596Z,8.80
2017-10-09T00:26:18.254Z,8.80
2017-10-09T00:28:46.650Z,8.70
2017-10-09T00:31:14.258Z,8.70
2017-10-09T00:33:41.872Z,8.80
2017-10-09T00:36:09.446Z,8.70
2017-10-09T00:38:37.792Z,8.70
2017-10-09T00:41:05.382Z,8.70
2017-10-09T00:43:32.992Z,8.70
2017-10-09T00:46:00.570Z,8.70
2017-10-09T00:48:28.117Z,8.70
2017-10-09T00:50:55.706Z,8.60
2017-10-09T00:53:23.327Z,8.60
2017-10-09T00:55:50.954Z,8.60
2017-10-09T00:58:19.435Z,8.60
2017-10-09T01:00:47.016Z,8.60
2017-10-09T01:03:14.595Z,8.50
2017-10-09T01:05:42.201Z,8.50
2017-10-09T01:08:09.800Z,8.50
2017-10-09T01:10:37.401Z,8.50
2017-10-09T01:13:05.448Z,8.50
2017-10-09T01:15:33.068Z,8.50
2017-10-09T01:18:01.405Z,8.60
2017-10-09T01:20:28.996Z,8.50
2017-10-09T01:22:57.320Z,8.70
2017-10-09T01:25:24.924Z,8.70
2017-10-09T01:27:53.280Z,8.80
2017-10-09T01:30:20.875Z,8.80
2017-10-09T01:32:49.283Z,8.90
2017-10-09T01:35:16.859Z,8.90
2017-10-09T01:37:44.446Z,9.00
2017-10-09T01:40:12.058Z,9.00
2017-10-09T01:42:39.661Z,9.10
2017-10-09T01:45:07.327Z,9.10
2017-10-09T01:47:34.943Z,9.10
2017-10-09T01:50:02.519Z,9.10
2017-10-09T01:52:30.096Z,9.10
2017-10-09T01:54:57.689Z,9.10
2017-10-09T01:57:25.277Z,9.10
2017-10-09T01:59:52.869Z,9.20
2017-10-09T02:02:20.442Z,9.20
2017-10-09T02:04:48.080Z,9.20
2017-10-09T02:07:15.665Z,9.20
2017-10-09T02:09:43.253Z,9.20
2017-10-09T02:12:10.881Z,9.20
2017-10-09T02:14:38.455Z,9.20
2017-10-09T02:17:06.032Z,9.10
2017-10-09T02:19:33.638Z,9.10
2017-10-09T02:22:01.207Z,9.00
2017-10-09T02:24:28.851Z,9.00
2017-10-09T02:26:56.464Z,9.00
2017-10-09T02:29:24.068Z,9.00
2017-10-09T02:31:51.711Z,9.00
2017-10-09T02:34:20.069Z,8.90
2017-10-09T02:36:47.688Z,8.90
2017-10-09T02:39:15.267Z,8.80
2017-10-09T02:41:42.852Z,8.80
2017-10-09T02:44:10.486Z,8.90
2017-10-09T02:46:38.830Z,8.80
2017-10-09T02:49:06.400Z,8.80
2017-10-09T02:51:34.047Z,8.80
2017-10-09T02:54:01.608Z,8.80
2017-10-09T02:56:29.197Z,8.70
2017-10-09T02:58:56.786Z,8.70
2017-10-09T03:01:24.382Z,8.70
2017-10-09T03:03:52.054Z,8.60
2017-10-09T03:06:19.662Z,8.60
2017-10-09T03:08:47.308Z,8.50
2017-10-09T03:11:14.936Z,8.50
2017-10-09T03:13:42.493Z,8.50
2017-10-09T03:16:10.088Z,8.40
2017-10-09T03:18:37.681Z,8.30
2017-10-09T03:21:06.070Z,8.30
2017-10-09T03:26:44.839Z,8.20
2017-10-09T03:29:25.295Z,8.20
2017-10-09T03:31:52.872Z,8.10
2017-10-09T03:34:20.502Z,8.10
2017-10-09T03:36:48.852Z,8.00
2017-10-09T03:39:16.627Z,8.00
2017-10-09T03:41:44.208Z,8.00
2017-10-09T03:44:12.569Z,7.90
2017-10-09T03:46:40.150Z,7.90
2017-10-09T03:49:08.531Z,7.80
2017-10-09T03:51:36.880Z,7.90
2017-10-09T03:54:04.469Z,7.90
2017-10-09T03:56:32.803Z,7.90
2017-10-09T03:59:00.399Z,7.80
2017-10-09T04:01:28.788Z,7.90
2017-10-09T04:03:57.135Z,7.90
2017-10-09T04:06:24.724Z,7.80
2017-10-09T04:08:52.369Z,7.90
2017-10-09T04:11:20.005Z,7.80
2017-10-09T04:13:47.606Z,7.80
2017-10-09T04:16:15.969Z,7.90
2017-10-09T04:18:43.630Z,7.90
2017-10-09T04:21:12.082Z,7.90
2017-10-09T04:23:39.690Z,7.90
2017-10-09T04:26:08.084Z,7.90
2017-10-09T04:28:35.701Z,7.90
2017-10-09T04:31:03.282Z,8.00
2017-10-09T04:33:31.632Z,7.90
2017-10-09T04:35:59.198Z,7.90
2017-10-09T04:38:26.802Z,7.80
2017-10-09T04:40:54.419Z,7.90
2017-10-09T04:43:22.065Z,8.00
2017-10-09T04:45:49.685Z,8.00
2017-10-09T04:48:17.300Z,7.90
2017-10-09T04:50:44.893Z,8.00
2017-10-09T04:53:13.240Z,8.00
2017-10-09T04:55:40.850Z,8.00
2017-10-09T04:58:08.579Z,8.10
2017-10-09T05:00:36.965Z,8.10
2017-10-09T05:03:05.676Z,8.10
2017-10-09T05:05:33.305Z,8.10
2017-10-09T05:08:01.700Z,8.10
2017-10-09T05:10:30.148Z,8.10
2017-10-09T05:12:57.746Z,8.10
2017-10-09T05:15:25.390Z,8.10
2017-10-09T05:17:53.773Z,8.20
2017-10-09T05:20:22.160Z,8.30
2017-10-09T05:22:50.487Z,8.30
2017-10-09T05:25:18.066Z,8.20
2017-10-09T05:27:46.559Z,8.20
2017-10-09T05:30:14.146Z,8.30
2017-10-09T05:32:42.501Z,8.10
2017-10-09T05:35:10.102Z,8.10
2017-10-09T05:37:37.684Z,8.10
2017-10-09T05:40:05.265Z,8.20
2017-10-09T05:42:32.835Z,8.20
2017-10-09T05:45:01.234Z,8.20
2017-10-09T05:47:29.601Z,8.20
2017-10-09T05:49:57.980Z,8.20
2017-10-09T05:52:25.577Z,8.20
2017-10-09T05:54:53.169Z,8.20
2017-10-09T05:57:20.794Z,8.30
2017-10-09T05:59:48.371Z,8.30
2017-10-09T06:02:15.957Z,8.40
2017-10-09T06:04:43.581Z,8.40
2017-10-09T06:07:11.147Z,8.30
2017-10-09T06:09:38.735Z,8.40
2017-10-09T06:12:07.109Z,8.40
2017-10-09T06:14:34.681Z,8.40
2017-10-09T06:17:02.301Z,8.50
2017-10-09T06:19:29.921Z,8.50
2017-10-09T06:21:57.477Z,8.60
2017-10-09T06:24:25.141Z,8.60
2017-10-09T06:26:52.706Z,8.60
2017-10-09T06:29:21.045Z,8.70
2017-10-09T06:31:48.765Z,8.70
2017-10-09T06:34:17.782Z,8.90
2017-10-09T06:36:45.629Z,8.80
2017-10-09T06:39:13.224Z,8.90
2017-10-09T06:41:40.815Z,9.00
2017-10-09T06:44:08.372Z,9.10
2017-10-09T06:46:35.955Z,9.20
2017-10-09T06:49:03.598Z,9.20
2017-10-09T06:51:31.246Z,9.20
2017-10-09T06:53:58.901Z,9.20
2017-10-09T06:56:26.581Z,9.30
2017-10-09T06:58:54.150Z,9.30
2017-10-09T07:01:21.747Z,9.40
2017-10-09T07:03:49.325Z,9.40
2017-10-09T07:06:16.878Z,9.50
2017-10-09T07:08:44.569Z,9.50
2017-10-09T07:11:12.160Z,9.60
2017-10-09T07:13:39.745Z,9.60
2017-10-09T07:16:07.334Z,9.60
2017-10-09T07:18:34.937Z,9.70
2017-10-09T07:21:04.300Z,9.70
2017-10-09T07:23:31.897Z,9.70
2017-10-09T07:25:59.489Z,9.80
2017-10-09T07:28:27.142Z,9.90
2017-10-09T07:30:55.220Z,9.90
2017-10-09T07:33:22.846Z,9.90
2017-10-09T07:35:50.429Z,9.90
2017-10-09T07:38:19.020Z,10.00
2017-10-09T07:40:46.604Z,10.00
2017-10-09T07:43:14.249Z,10.10
2017-10-09T07:45:41.839Z,10.20
2017-10-09T07:48:09.431Z,10.30
2017-10-09T07:50:37.801Z,10.50
2017-10-09T07:53:05.473Z,10.60
2017-10-09T07:55:33.108Z,10.60
2017-10-09T07:58:00.772Z,10.80
2017-10-09T08:00:29.278Z,10.70
2017-10-09T08:02:57.613Z,10.90
2017-10-09T08:05:25.214Z,10.80
2017-10-09T08:07:53.968Z,10.90
2017-10-09T08:10:21.554Z,10.90
2017-10-09T08:12:49.916Z,11.00
2017-10-09T08:15:17.503Z,11.00
2017-10-09T08:17:45.880Z,11.00
2017-10-09T08:20:13.542Z,11.00
2017-10-09T08:22:41.167Z,11.20
2017-10-09T08:25:08.741Z,11.40
2017-10-09T08:27:37.165Z,11.40
2017-10-09T08:30:04.769Z,11.40
2017-10-09T08:32:32.425Z,11.40
2017-10-09T08:35:00.299Z,11.50
2017-10-09T08:37:27.894Z,11.50
2017-10-09T08:39:56.285Z,11.70
2017-10-09T08:42:23.907Z,11.70
2017-10-09T08:44:51.592Z,11.80
2017-10-09T08:47:19.219Z,11.90
2017-10-09T08:49:46.844Z,12.00
2017-10-09T08:52:14.456Z,12.10
2017-10-09T08:54:42.861Z,12.20
2017-10-09T08:57:10.536Z,12.20
2017-10-09T08:59:38.252Z,12.30
2017-10-09T09:02:05.901Z,12.40
2017-10-09T09:04:33.503Z,12.20
2017-10-09T09:07:01.181Z,12.00
2017-10-09T09:09:28.846Z,12.00
2017-10-09T09:11:56.461Z,11.90
2017-10-09T09:14:24.078Z,11.90
2017-10-09T09:16:51.668Z,12.10
2017-10-09T09:19:19.350Z,12.10
2017-10-09T09:21:46.948Z,12.20
2017-10-09T09:24:15.275Z,12.10
2017-10-09T09:26:42.900Z,12.10
2017-10-09T09:29:10.506Z,12.00
2017-10-09T09:31:38.143Z,12.10
2017-10-09T09:34:05.805Z,12.00
2017-10-09T09:36:33.422Z,11.90
2017-10-09T09:39:01.043Z,11.80
2017-10-09T09:41:28.748Z,12.00
2017-10-09T09:43:57.168Z,12.20
2017-10-09T09:46:25.086Z,12.20
2017-10-09T09:48:52.707Z,12.30
2017-10-09T09:51:20.463Z,12.10
2017-10-09T09:53:48.065Z,12.10
2017-10-09T09:56:15.668Z,12.30
2017-10-09T09:58:43.250Z,12.60
2017-10-09T10:01:11.624Z,13.10
2017-10-09T10:03:39.214Z,13.10
2017-10-09T10:06:06.798Z,13.30
2017-10-09T10:08:35.750Z,13.40
2017-10-09T10:11:03.307Z,13.40
2017-10-09T10:13:30.968Z,13.10
2017-10-09T10:15:58.747Z,13.00
2017-10-09T10:18:26.300Z,13.00
2017-10-09T10:20:53.905Z,13.10
2017-10-09T10:23:22.238Z,12.90
2017-10-09T10:25:49.826Z,12.90
2017-10-09T10:28:17.416Z,12.70
2017-10-09T10:30:45.016Z,13.00
2017-10-09T10:33:12.603Z,13.10
2017-10-09T10:35:40.178Z,13.30
2017-10-09T10:38:07.768Z,13.40
2017-10-09T10:40:35.339Z,13.20
2017-10-09T10:43:02.935Z,13.10
2017-10-09T10:45:30.597Z,13.30
2017-10-09T10:47:58.175Z,13.50
2017-10-09T10:50:25.817Z,13.60
2017-10-09T10:52:53.447Z,13.70
2017-10-09T10:55:21.035Z,13.80
2017-10-09T10:57:48.777Z,13.90
2017-10-09T11:00:16.419Z,13.90
2017-10-09T11:02:44.045Z,14.00
2017-10-09T11:05:11.644Z,14.10
2017-10-09T11:07:39.261Z,14.20
2017-10-09T11:10:06.871Z,14.30
2017-10-09T11:12:34.511Z,14.40
2017-10-09T11:15:02.904Z,14.30
2017-10-09T11:17:30.520Z,14.30
2017-10-09T11:19:58.169Z,14.20
2017-10-09T11:22:25.778Z,14.50
2017-10-09T11:24:53.399Z,14.70
2017-10-09T11:27:20.985Z,14.60
2017-10-09T11:29:48.605Z,14.60
2017-10-09T11:32:16.204Z,14.60
2017-10-09T11:34:44.571Z,14.70
2017-10-09T11:37:12.137Z,14.70
2017-10-09T11:39:40.569Z,14.60
2017-10-09T11:42:08.207Z,14.50
2017-10-09T11:44:35.859Z,14.60
2017-10-09T11:47:03.858Z,14.70
2017-10-09T11:49:31.554Z,14.60
2017-10-09T11:51:59.185Z,14.60
2017-10-09T11:54:26.797Z,14.60
2017-10-09T11:56:55.135Z,14.80
2017-10-09T11:59:22.746Z,14.80
2017-10-09T12:01:51.142Z,15.00
2017-10-09T12:04:18.769Z,15.00
2017-10-09T12:06:46.467Z,15.10
2017-10-09T12:09:14.083Z,15.20
2017-10-09T12:11:41.682Z,15.20
2017-10-09T12:14:09.324Z,15.10
2017-10-09T12:16:38.041Z,14.90
2017-10-09T12:19:05.664Z,14.90
2017-10-09T12:21:33.346Z,14.90
2017-10-09T12:24:01.055Z,14.80
2017-10-09T12:26:28.669Z,15.00
2017-10-09T12:28:57.564Z,15.20
2017-10-09T12:31:25.917Z,15.00
2017-10-09T12:33:53.480Z,15.00
2017-10-09T12:36:21.840Z,14.90
2017-10-09T12:38:49.400Z,14.80
2017-10-09T12:41:16.972Z,14.80
2017-10-09T12:43:44.569Z,14.80
2017-10-09T12:46:12.149Z,14.90
2017-10-09T12:48:39.704Z,14.90
2017-10-09T12:51:07.389Z,14.90
2017-10-09T12:53:35.020Z,15.00
2017-10-09T12:56:02.692Z,15.00
2017-10-09T12:58:31.755Z,14.90
2017-10-09T13:01:00.865Z,15.10
2017-10-09T13:03:28.467Z,15.10
2017-10-09T13:05:56.156Z,15.20
2017-10-09T13:08:24.546Z,15.60
2017-10-09T13:10:52.923Z,15.70
2017-10-09T13:13:21.345Z,15.70
2017-10-09T13:15:48.963Z,15.60
2017-10-09T13:18:17.293Z,15.80
2017-10-09T13:20:44.894Z,15.80
2017-10-09T13:23:12.533Z,15.40
2017-10-09T13:25:40.093Z,15.10
2017-10-09T13:28:07.728Z,15.00
2017-10-09T13:30:35.312Z,15.00
2017-10-09T13:33:02.871Z,14.80
2017-10-09T13:35:30.616Z,14.80
2017-10-09T13:37:58.242Z,14.70
2017-10-09T13:40:26.612Z,14.90
2017-10-09T13:42:54.984Z,15.00
2017-10-09T13:45:22.567Z,15.00
2017-10-09T13:47:50.180Z,14.80
2017-10-09T13:50:18.619Z,14.80
2017-10-09T13:52:46.278Z,14.80
2017-10-09T13:55:13.906Z,14.90
2017-10-09T13:57:42.315Z,14.70
2017-10-09T14:00:09.954Z,14.70
2017-10-09T14:02:38.342Z,14.80
2017-10-09T14:05:05.946Z,14.80
2017-10-09T14:07:34.316Z,14.80
2017-10-09T14:10:01.957Z,14.80
2017-10-09T14:12:29.586Z,14.90
2017-10-09T14:14:57.168Z,15.00
2017-10-09T14:17:24.834Z,14.80
2017-10-09T14:19:52.450Z,14.70
2017-10-09T14:22:20.130Z,14.70
2017-10-09T14:24:48.498Z,14.90
2017-10-09T14:27:16.125Z,14.90
2017-10-09T14:29:43.693Z,14.90
2017-10-09T14:42:01.641Z,14.80
2017-10-09T14:44:29.952Z,14.80
2017-10-09T14:46:57.508Z,14.80
2017-10-09T14:49:25.122Z,14.80
2017-10-09T14:51:53.588Z,14.80
2017-10-09T14:54:21.269Z,14.80
2017-10-09T14:56:49.658Z,14.50
2017-10-09T14:59:17.261Z,14.40
2017-10-09T15:01:44.848Z,14.40
2017-10-09T15:04:12.501Z,14.30
2017-10-09T15:06:40.092Z,14.20
2017-10-09T15:09:07.678Z,14.20
2017-10-09T15:11:35.285Z,14.10
2017-10-09T15:14:02.872Z,14.20
2017-10-09T15:16:30.485Z,14.10
2017-10-09T15:18:58.096Z,14.20
2017-10-09T15:21:26.425Z,14.10
2017-10-09T15:23:54.073Z,14.10
2017-10-09T15:26:21.690Z,14.10
2017-10-09T15:28:49.304Z,14.10
2017-10-09T15:31:16.956Z,14.20
2017-10-09T15:33:44.742Z,14.20
2017-10-09T15:36:12.427Z,14.30
2017-10-09T15:38:40.088Z,14.20
2017-10-09T15:41:07.695Z,14.00
2017-10-09T15:43:35.284Z,14.20
2017-10-09T15:46:02.879Z,14.20
2017-10-09T15:48:30.504Z,14.20
2017-10-09T15:50:58.090Z,14.20
2017-10-09T15:53:25.741Z,14.00
2017-10-09T15:55:53.348Z,13.90
2017-10-09T15:58:21.079Z,13.90
2017-10-09T16:00:48.716Z,13.90
2017-10-09T16:03:16.346Z,14.00
2017-10-09T16:05:43.995Z,13.90
2017-10-09T16:08:12.378Z,13.80
2017-10-09T16:10:40.790Z,13.80
2017-10-09T16:13:08.440Z,13.70
2017-10-09T16:15:36.073Z,13.70
2017-10-09T16:18:04.499Z,13.80
2017-10-09T16:20:32.145Z,13.80
2017-10-09T16:22:59.800Z,13.80
2017-10-09T16:25:27.420Z,13.80
2017-10-09T16:27:55.064Z,13.70
2017-10-09T16:30:22.670Z,13.60
2017-10-09T16:32:50.368Z,13.70
2017-10-09T16:35:18.016Z,13.70
2017-10-09T16:37:45.630Z,13.70
2017-10-09T16:40:14.027Z,13.80
2017-10-09T16:42:41.630Z,13.80
2017-10-09T16:45:09.247Z,13.80
2017-10-09T16:47:37.639Z,13.60
2017-10-09T16:50:05.241Z,13.60
2017-10-09T16:52:33.205Z,13.60
2017-10-09T16:55:00.834Z,13.40
2017-10-09T16:57:28.457Z,13.40
2017-10-09T16:59:56.828Z,13.40
2017-10-09T17:02:24.409Z,13.40
2017-10-09T17:04:52.119Z,13.30
2017-10-09T17:07:19.818Z,13.10
2017-10-09T17:09:47.464Z,13.00
2017-10-09T17:12:15.188Z,13.00
2017-10-09T17:14:42.840Z,12.90
2017-10-09T17:17:10.561Z,12.90
2017-10-09T17:19:39.041Z,12.80
2017-10-09T17:22:06.713Z,12.70
2017-10-09T17:24:34.387Z,12.80
2017-10-09T17:27:02.766Z,12.80
2017-10-09T17:29:31.212Z,12.80
2017-10-09T17:31:58.868Z,12.70
2017-10-09T17:34:27.405Z,12.80
2017-10-09T17:36:56.377Z,12.90
2017-10-09T17:39:24.758Z,12.80
2017-10-09T17:41:53.151Z,12.90
2017-10-09T17:44:20.845Z,12.90
2017-10-09T17:46:48.596Z,12.90
2017-10-09T17:49:16.214Z,12.90
2017-10-09T17:51:44.649Z,12.90
2017-10-09T17:54:12.912Z,12.90
2017-10-09T17:56:40.498Z,12.70
2017-10-09T17:59:09.069Z,12.70
2017-10-09T18:01:36.701Z,12.70
2017-10-09T18:04:04.312Z,12.70
2017-10-09T18:06:31.964Z,12.70
2017-10-09T18:08:59.574Z,12.60
2017-10-09T18:11:27.168Z,12.60
2017-10-09T18:13:54.902Z,12.60
2017-10-09T18:16:22.604Z,12.80
2017-10-09T18:18:50.204Z,12.90
2017-10-09T18:21:17.938Z,12.80
2017-10-09T18:23:45.590Z,12.90
2017-10-09T18:26:13.233Z,13.00
2017-10-09T18:28:41.615Z,12.90
2017-10-09T18:31:09.226Z,12.90
2017-10-09T18:33:36.880Z,12.90
2017-10-09T18:36:04.527Z,12.80
2017-10-09T18:38:32.094Z,12.80
2017-10-09T18:40:59.682Z,12.80
2017-10-09T18:43:27.356Z,12.80
2017-10-09T18:45:55.727Z,12.90
2017-10-09T18:48:24.200Z,12.80
2017-10-09T18:50:51.850Z,12.90
2017-10-09T18:53:19.546Z,12.90
2017-10-09T18:55:48.183Z,13.00
2017-10-09T18:58:15.807Z,12.90
2017-10-09T19:00:43.433Z,13.00
2017-10-09T19:05:44.934Z,13.10
2017-10-09T19:08:13.261Z,13.10
2017-10-09T19:10:40.858Z,13.00
2017-10-09T19:13:09.340Z,13.00
2017-10-09T19:15:37.702Z,13.10
2017-10-09T19:18:05.345Z,13.10
2017-10-09T19:20:33.028Z,13.10
2017-10-09T19:23:01.410Z,13.20
2017-10-09T19:25:29.008Z,13.20
2017-10-09T19:27:56.659Z,13.20
2017-10-09T19:30:24.283Z,13.10
2017-10-09T19:32:51.858Z,13.00
2017-10-09T19:35:20.219Z,12.80
2017-10-09T19:37:47.873Z,12.80
2017-10-09T19:40:15.517Z,12.80
2017-10-09T19:42:43.150Z,12.80
2017-10-09T19:45:10.798Z,12.80
2017-10-09T19:47:38.430Z,12.80
2017-10-09T19:50:07.667Z,12.90
2017-10-09T19:52:35.304Z,12.90
2017-10-09T19:55:02.936Z,13.00
2017-10-09T19:57:30.682Z,13.00
2017-10-09T19:59:58.290Z,13.00
2017-10-09T20:02:26.652Z,13.00
2017-10-09T20:04:55.064Z,12.90
2017-10-09T20:07:24.206Z,12.90
2017-10-09T20:09:52.625Z,12.80
2017-10-09T20:12:20.299Z,12.90
2017-10-09T20:14:47.912Z,12.80
2017-10-09T20:17:15.576Z,12.90
2017-10-09T20:19:43.213Z,12.90
2017-10-09T20:22:10.846Z,12.90
2017-10-09T20:24:38.655Z,12.90
2017-10-09T20:27:06.321Z,12.90
2017-10-09T20:29:33.933Z,12.90
2017-10-09T20:32:01.551Z,12.70
2017-10-09T20:34:29.629Z,12.70
2017-10-09T20:36:57.281Z,12.70
2017-10-09T20:39:24.907Z,12.70
2017-10-09T20:41:52.518Z,12.60
2017-10-09T20:44:20.162Z,12.60
2017-10-09T20:46:47.826Z,12.60
2017-10-09T20:49:15.410Z,12.60
2017-10-09T20:51:43.957Z,12.70
2017-10-09T20:54:11.619Z,12.70
2017-10-09T20:56:39.262Z,12.70
2017-10-09T20:59:07.613Z,12.60
2017-10-09T21:01:35.332Z,12.60
2017-10-09T21:04:03.094Z,12.70
2017-10-09T21:06:30.711Z,12.60
2017-10-09T21:08:59.157Z,12.60
2017-10-09T21:11:26.836Z,12.60
2017-10-09T21:13:54.454Z,12.70
2017-10-09T21:16:22.080Z,12.60
2017-10-09T21:18:49.709Z,12.60
2017-10-09T21:21:17.395Z,12.60
2017-10-09T21:23:45.100Z,12.60
2017-10-09T21:26:12.960Z,12.70
2017-10-09T21:28:41.312Z,12.70
2017-10-09T21:31:09.806Z,12.70
2017-10-09T21:33:38.314Z,12.70
2017-10-09T21:36:05.927Z,12.70
2017-10-09T21:38:34.446Z,12.60
2017-10-09T21:41:02.082Z,12.60
2017-10-09T21:43:30.494Z,12.60
2017-10-09T21:45:59.016Z,12.60
2017-10-09T21:48:26.661Z,12.60
2017-10-09T21:50:54.312Z,12.60
2017-10-09T21:53:21.955Z,12.60
2017-10-09T21:55:49.604Z,12.70
2017-10-09T21:58:17.236Z,12.60
2017-10-09T22:00:44.864Z,12.60
2017-10-09T22:03:12.482Z,12.50
2017-10-09T22:05:40.117Z,12.60
2017-10-09T22:08:07.822Z,12.60
2017-10-09T22:10:35.440Z,12.60
2017-10-09T22:13:03.026Z,12.60
2017-10-09T22:15:30.632Z,12.60
2017-10-09T22:17:58.224Z,12.70
2017-10-09T22:20:25.798Z,12.70
2017-10-09T22:22:54.196Z,12.80
2017-10-09T22:25:21.860Z,12.70
2017-10-09T22:27:49.626Z,12.60
2017-10-09T22:30:17.289Z,12.60
2017-10-09T22:32:44.912Z,12.70
2017-10-09T22:35:13.121Z,12.70
2017-10-09T22:37:40.776Z,12.80
2017-10-09T22:40:08.416Z,12.70
2017-10-09T22:42:36.103Z,12.80
2017-10-09T22:45:03.807Z,12.80
2017-10-09T22:47:31.440Z,12.80
2017-10-09T22:49:59.030Z,12.90
2017-10-09T22:52:26.685Z,12.90
2017-10-09T22:54:54.396Z,13.00
2017-10-09T22:57:21.987Z,13.00
2017-10-09T22:59:49.648Z,13.00
2017-10-09T23:02:17.216Z,13.10
2017-10-09T23:04:44.840Z,13.00
2017-10-09T23:07:12.476Z,13.00
2017-10-09T23:09:40.150Z,12.90
2017-10-09T23:12:07.771Z,12.90
2017-10-09T23:14:36.040Z,12.80
2017-10-09T23:17:03.670Z,12.90
2017-10-09T23:19:32.232Z,12.90
2017-10-09T23:21:59.850Z,12.90
2017-10-09T23:24:27.767Z,13.00
2017-10-09T23:26:55.369Z,13.00
2017-10-09T23:29:23.005Z,12.90
2017-10-09T23:31:51.375Z,12.90
2017-10-09T23:34:19.564Z,12.90
2017-10-09T23:36:47.226Z,12.90
2017-10-09T23:39:14.994Z,12.90
2017-10-09T23:41:42.666Z,12.80
2017-10-09T23:44:10.256Z,12.80
2017-10-09T23:46:38.687Z,12.90
2017-10-09T23:49:06.891Z,12.90
2017-10-09T23:51:34.491Z,12.80
2017-10-09T23:54:02.857Z,12.80
2017-10-09T23:56:30.456Z,12.80
2017-10-09T23:58:58.100Z,12.70
